createdAt,value
2023-01-15T00:01:23.279Z,83.53
2023-01-15T00:03:26.097Z,83.43
2023-01-15T00:05:28.892Z,83.72
2023-01-15T00:07:32.250Z,82.94
2023-01-15T00:09:35.227Z,83.39
2023-01-15T00:11:38.025Z,83.09
2023-01-15T00:13:42.279Z,83.04
2023-01-15T00:15:45.156Z,83.40
2023-01-15T00:17:48.063Z,82.95
2023-01-15T00:19:50.951Z,84.00
2023-01-15T00:21:53.930Z,83.49
2023-01-15T00:24:14.575Z,82.93
2023-01-15T00:26:35.996Z,82.94
2023-01-15T00:28:38.768Z,83.50
2023-01-15T00:30:43.440Z,83.68
2023-01-15T00:32:46.372Z,83.45
2023-01-15T00:34:49.191Z,83.43
2023-01-15T00:36:51.976Z,82.64
2023-01-15T00:38:54.814Z,82.35
2023-01-15T00:40:57.607Z,82.60
2023-01-15T00:43:00.408Z,83.20
2023-01-15T00:45:09.834Z,82.97
2023-01-15T00:47:15.201Z,83.69
2023-01-15T00:49:17.859Z,83.29
2023-01-15T00:51:20.691Z,83.29
2023-01-15T00:53:23.570Z,82.93
2023-01-15T00:55:26.758Z,83.32
2023-01-15T00:57:29.652Z,83.56
2023-01-15T00:59:32.458Z,84.05
2023-01-15T01:01:35.511Z,83.53
2023-01-15T01:03:39.653Z,83.82
2023-01-15T01:05:42.458Z,83.57
2023-01-15T01:07:45.207Z,83.88
2023-01-15T01:09:48.115Z,83.29
2023-01-15T01:11:51.413Z,83.47
2023-01-15T01:13:54.916Z,82.98
2023-01-15T01:15:57.872Z,83.85
2023-01-15T01:18:02.873Z,84.17
2023-01-15T01:20:08.161Z,83.50
2023-01-15T01:22:10.982Z,83.85
2023-01-15T01:24:15.888Z,84.10
2023-01-15T01:26:19.602Z,84.25
2023-01-15T01:28:22.397Z,83.51
2023-01-15T01:30:25.182Z,83.71
2023-01-15T01:32:28.405Z,83.74
2023-01-15T01:34:33.562Z,83.96
2023-01-15T01:36:39.205Z,83.96
2023-01-15T01:38:41.919Z,83.67
2023-01-15T01:40:44.750Z,84.50
2023-01-15T01:42:48.155Z,83.81
2023-01-15T01:45:02.448Z,83.33
2023-01-15T01:47:08.063Z,83.13
2023-01-15T01:49:14.047Z,83.49
2023-01-15T01:51:17.745Z,83.84
2023-01-15T01:53:26.638Z,83.85
2023-01-15T01:55:31.776Z,84.42
2023-01-15T01:57:34.951Z,84.26
2023-01-15T01:59:39.155Z,84.13
2023-01-15T02:01:42.161Z,84.12
2023-01-15T02:03:46.256Z,84.96
2023-01-15T02:05:53.891Z,84.89
2023-01-15T02:07:56.996Z,85.05
2023-01-15T02:10:01.360Z,84.48
2023-01-15T02:12:18.525Z,84.32
2023-01-15T02:14:27.408Z,84.81
2023-01-15T02:16:37.660Z,84.57
2023-01-15T02:18:47.989Z,85.52
2023-01-15T02:20:56.450Z,84.94
2023-01-15T02:23:12.196Z,85.37
2023-01-15T02:25:25.714Z,85.38
2023-01-15T02:27:30.175Z,85.32
2023-01-15T02:29:41.075Z,85.64
2023-01-15T02:31:49.151Z,85.52
2023-01-15T02:33:58.075Z,85.90
2023-01-15T02:36:01.895Z,86.69
2023-01-15T02:38:12.107Z,86.47
2023-01-15T02:40:16.212Z,86.35
2023-01-15T02:42:21.581Z,86.14
2023-01-15T02:44:27.935Z,85.70
2023-01-15T02:46:36.890Z,86.60
2023-01-15T02:48:47.165Z,87.08
2023-01-15T02:50:53.484Z,87.23
2023-01-15T02:53:03.857Z,86.96
2023-01-15T02:55:13.970Z,87.83
2023-01-15T02:57:23.634Z,87.83
2023-01-15T02:59:37.582Z,87.33
2023-01-15T03:01:45.583Z,87.57
2023-01-15T03:03:56.566Z,85.83
2023-01-15T03:06:05.448Z,83.29
2023-01-15T03:08:09.444Z,81.97
2023-01-15T03:10:15.000Z,78.98
2023-01-15T03:12:23.345Z,80.12
2023-01-15T03:14:33.458Z,79.50
2023-01-15T03:16:39.095Z,77.58
2023-01-15T03:18:49.537Z,77.44
2023-01-15T03:20:58.926Z,77.37
2023-01-15T03:23:09.038Z,77.20
2023-01-15T03:25:20.303Z,78.12
2023-01-15T03:27:27.018Z,78.30
2023-01-15T03:29:35.562Z,78.28
2023-01-15T03:31:41.515Z,78.05
2023-01-15T03:33:44.303Z,78.09
2023-01-15T03:35:55.927Z,77.99
2023-01-15T03:38:07.791Z,78.62
2023-01-15T03:40:12.335Z,78.20
2023-01-15T03:42:26.182Z,78.63
2023-01-15T03:44:38.317Z,78.13
2023-01-15T03:46:55.059Z,78.52
2023-01-15T03:49:02.802Z,78.18
2023-01-15T03:51:13.126Z,78.53
2023-01-15T03:53:21.978Z,78.05
2023-01-15T03:55:38.109Z,78.59
2023-01-15T03:57:49.132Z,79.19
2023-01-15T03:59:55.958Z,78.68
2023-01-15T04:02:02.715Z,78.84
2023-01-15T04:04:06.803Z,79.12
2023-01-15T04:06:11.471Z,79.39
2023-01-15T04:08:17.873Z,78.86
2023-01-15T04:10:23.061Z,78.31
2023-01-15T04:12:27.984Z,78.27
2023-01-15T04:14:32.423Z,78.01
2023-01-15T04:16:41.688Z,78.14
2023-01-15T04:18:45.821Z,77.07
2023-01-15T04:20:49.325Z,77.99
2023-01-15T04:22:52.177Z,77.77
2023-01-15T04:24:55.598Z,77.48
2023-01-15T04:26:58.454Z,77.63
2023-01-15T04:29:01.227Z,78.01
2023-01-15T04:31:04.146Z,78.27
2023-01-15T04:33:06.910Z,78.70
2023-01-15T04:35:11.200Z,78.74
2023-01-15T04:37:14.025Z,78.83
2023-01-15T04:39:16.797Z,77.42
2023-01-15T04:41:36.830Z,77.00
2023-01-15T04:43:57.020Z,76.73
2023-01-15T04:46:00.387Z,77.64
2023-01-15T04:48:05.279Z,78.27
2023-01-15T04:50:08.335Z,76.99
2023-01-15T04:52:12.491Z,77.30
2023-01-15T04:54:16.662Z,77.45
2023-01-15T04:56:19.448Z,77.96
2023-01-15T04:58:22.571Z,78.39
2023-01-15T05:00:25.591Z,78.16
2023-01-15T05:02:28.552Z,77.75
2023-01-15T05:04:31.915Z,76.94
2023-01-15T05:06:35.075Z,77.48
2023-01-15T05:08:39.248Z,77.90
2023-01-15T05:10:42.064Z,77.92
2023-01-15T05:12:44.873Z,77.97
2023-01-15T05:14:47.694Z,78.46
2023-01-15T05:16:50.507Z,78.55
2023-01-15T05:18:55.153Z,78.74
2023-01-15T05:20:57.895Z,78.91
2023-01-15T05:23:00.651Z,79.07
2023-01-15T05:25:05.385Z,79.17
2023-01-15T05:27:08.220Z,79.25
2023-01-15T05:29:12.205Z,78.91
2023-01-15T05:31:16.810Z,79.31
2023-01-15T05:33:19.649Z,79.41
2023-01-15T05:35:22.504Z,79.23
2023-01-15T05:37:25.286Z,79.37
2023-01-15T05:39:28.122Z,79.37
2023-01-15T05:41:50.883Z,79.08
2023-01-15T05:43:54.644Z,79.44
2023-01-15T05:46:02.196Z,78.96
2023-01-15T05:48:05.437Z,78.85
2023-01-15T05:50:09.083Z,79.17
2023-01-15T05:52:11.878Z,79.25
2023-01-15T05:54:16.227Z,79.24
2023-01-15T05:56:18.966Z,77.90
2023-01-15T05:58:23.110Z,77.86
2023-01-15T06:00:28.225Z,77.48
2023-01-15T06:02:31.982Z,76.80
2023-01-15T06:04:34.808Z,76.69
2023-01-15T06:06:37.661Z,76.84
2023-01-15T06:08:40.499Z,76.88
2023-01-15T06:10:45.611Z,76.54
2023-01-15T06:12:48.258Z,76.44
2023-01-15T06:14:52.422Z,76.98
2023-01-15T06:16:55.245Z,76.73
2023-01-15T06:19:01.620Z,76.61
2023-01-15T06:21:05.278Z,75.78
2023-01-15T06:23:08.183Z,75.85
2023-01-15T06:25:11.064Z,75.56
2023-01-15T06:27:13.818Z,76.32
2023-01-15T06:29:18.821Z,74.86
2023-01-15T06:31:24.580Z,75.70
2023-01-15T06:33:27.453Z,76.03
2023-01-15T06:35:30.298Z,75.79
2023-01-15T06:37:33.114Z,76.10
2023-01-15T06:39:35.996Z,75.90
2023-01-15T06:41:56.582Z,75.50
2023-01-15T06:44:16.898Z,75.73
2023-01-15T06:46:37.151Z,76.34
2023-01-15T06:48:41.589Z,76.69
2023-01-15T06:50:44.786Z,77.08
2023-01-15T06:52:47.615Z,77.03
2023-01-15T06:54:50.478Z,77.39
2023-01-15T06:56:53.377Z,77.23
2023-01-15T06:58:56.869Z,76.46
2023-01-15T07:00:59.858Z,76.54
2023-01-15T07:03:03.020Z,76.36
2023-01-15T07:05:07.734Z,76.13
2023-01-15T07:07:10.540Z,76.74
2023-01-15T07:09:13.567Z,76.85
2023-01-15T07:11:17.687Z,76.36
2023-01-15T07:13:20.569Z,76.36
2023-01-15T07:15:23.311Z,76.42
2023-01-15T07:17:26.066Z,76.40
2023-01-15T07:19:29.233Z,76.65
2023-01-15T07:21:33.370Z,77.01
2023-01-15T07:23:36.098Z,76.93
2023-01-15T07:25:39.911Z,76.89
2023-01-15T07:27:42.716Z,76.72
2023-01-15T07:29:45.609Z,77.46
2023-01-15T07:31:48.506Z,77.24
2023-01-15T07:33:51.523Z,77.03
2023-01-15T07:35:54.330Z,77.62
2023-01-15T07:37:58.405Z,76.54
2023-01-15T07:40:01.180Z,76.28
2023-01-15T07:42:21.948Z,75.74
2023-01-15T07:44:43.584Z,75.45
2023-01-15T07:47:03.751Z,75.54
2023-01-15T07:49:27.112Z,75.96
2023-01-15T07:51:30.009Z,76.06
2023-01-15T07:53:34.117Z,75.97
2023-01-15T07:55:37.363Z,76.64
2023-01-15T07:57:41.292Z,76.35
2023-01-15T07:59:44.158Z,76.59
2023-01-15T08:01:47.256Z,76.05
2023-01-15T08:03:50.176Z,75.50
2023-01-15T08:05:53.015Z,75.75
2023-01-15T08:07:55.906Z,76.25
2023-01-15T08:10:00.089Z,75.76
2023-01-15T08:12:21.571Z,75.54
2023-01-15T08:14:41.788Z,75.97
2023-01-15T08:16:44.546Z,75.78
2023-01-15T08:18:47.342Z,75.83
2023-01-15T08:20:50.300Z,76.08
2023-01-15T08:22:53.555Z,75.80
2023-01-15T08:24:56.365Z,76.24
2023-01-15T08:27:00.451Z,76.27
2023-01-15T08:29:03.250Z,76.49
2023-01-15T08:31:06.663Z,76.05
2023-01-15T08:33:09.435Z,76.10
2023-01-15T08:35:13.058Z,76.48
2023-01-15T08:37:15.902Z,76.07
2023-01-15T08:39:19.087Z,76.82
2023-01-15T08:41:21.958Z,76.08
2023-01-15T08:43:26.255Z,75.93
2023-01-15T08:45:29.134Z,76.63
2023-01-15T08:47:32.855Z,76.62
2023-01-15T08:49:35.734Z,75.85
2023-01-15T08:51:38.529Z,75.51
2023-01-15T08:53:42.136Z,76.08
2023-01-15T08:55:44.956Z,75.56
2023-01-15T08:57:47.755Z,75.38
2023-01-15T08:59:51.995Z,75.76
2023-01-15T09:01:55.020Z,75.49
2023-01-15T09:03:58.144Z,75.53
2023-01-15T09:06:01.730Z,75.37
2023-01-15T09:08:05.277Z,75.54
2023-01-15T09:10:09.216Z,75.75
2023-01-15T09:12:12.004Z,75.38
2023-01-15T09:14:59.692Z,75.18
2023-01-15T09:16:40.868Z,75.98
2023-01-15T09:18:43.937Z,75.34
2023-01-15T09:20:46.737Z,74.39
2023-01-15T09:22:50.003Z,73.86
2023-01-15T09:24:52.783Z,73.54
2023-01-15T09:26:55.588Z,73.38
2023-01-15T09:28:59.099Z,74.35
2023-01-15T09:31:02.578Z,73.53
2023-01-15T09:33:06.832Z,74.57
2023-01-15T09:35:10.139Z,74.43
2023-01-15T09:37:12.981Z,74.47
2023-01-15T09:39:15.748Z,74.73
2023-01-15T09:41:36.451Z,73.54
2023-01-15T09:43:51.122Z,73.30
2023-01-15T09:45:57.965Z,73.68
2023-01-15T09:48:18.293Z,74.23
2023-01-15T09:50:36.499Z,74.10
2023-01-15T09:52:59.969Z,73.64
2023-01-15T09:55:11.107Z,73.50
2023-01-15T09:57:16.731Z,73.46
2023-01-15T09:59:29.171Z,72.83
2023-01-15T10:01:34.298Z,73.68
2023-01-15T10:03:44.052Z,72.41
2023-01-15T10:05:53.758Z,72.44
2023-01-15T10:08:02.009Z,73.23
2023-01-15T10:10:08.403Z,71.61
2023-01-15T10:12:36.629Z,71.48
2023-01-15T10:14:46.843Z,71.75
2023-01-15T10:16:51.417Z,71.37
2023-01-15T10:18:58.153Z,71.73
2023-01-15T10:21:27.259Z,72.20
2023-01-15T10:23:36.579Z,71.12
2023-01-15T10:25:48.498Z,70.88
2023-01-15T10:27:52.811Z,70.66
2023-01-15T10:30:01.524Z,69.45
2023-01-15T10:32:17.613Z,70.10
2023-01-15T10:34:52.287Z,70.47
2023-01-15T10:37:02.019Z,69.17
2023-01-15T10:39:16.134Z,67.33
2023-01-15T10:41:32.724Z,68.92
2023-01-15T10:43:47.369Z,69.37
2023-01-15T10:45:54.983Z,69.75
2023-01-15T10:48:02.311Z,69.87
2023-01-15T10:50:17.795Z,70.02
2023-01-15T10:52:26.282Z,70.08
2023-01-15T10:54:36.228Z,70.31
2023-01-15T10:56:44.277Z,70.45
2023-01-15T10:58:53.455Z,70.34
2023-01-15T11:00:59.968Z,69.89
2023-01-15T11:03:07.500Z,70.59
2023-01-15T11:05:17.042Z,70.95
2023-01-15T11:07:20.926Z,71.08
2023-01-15T11:09:31.275Z,71.22
2023-01-15T11:12:03.408Z,71.23
2023-01-15T11:14:24.022Z,71.44
2023-01-15T11:16:45.499Z,71.34
2023-01-15T11:19:06.246Z,71.06
2023-01-15T11:21:15.217Z,71.74
2023-01-15T11:23:21.695Z,71.97
2023-01-15T11:25:30.394Z,71.50
2023-01-15T11:27:34.529Z,70.61
2023-01-15T11:29:38.103Z,70.12
2023-01-15T11:31:42.174Z,70.50
2023-01-15T11:33:46.537Z,71.43
2023-01-15T11:35:52.705Z,71.67
2023-01-15T11:38:15.243Z,71.67
2023-01-15T11:40:19.691Z,71.47
2023-01-15T11:42:48.807Z,72.89
2023-01-15T11:45:10.459Z,72.88
2023-01-15T11:47:32.038Z,73.54
2023-01-15T11:49:52.215Z,73.95
2023-01-15T11:51:58.676Z,74.17
2023-01-15T11:54:05.643Z,74.02
2023-01-15T11:56:13.912Z,74.80
2023-01-15T11:58:16.902Z,75.25
2023-01-15T12:00:23.640Z,75.22
2023-01-15T12:02:35.746Z,75.20
2023-01-15T12:04:47.622Z,75.83
2023-01-15T12:06:51.158Z,75.90
2023-01-15T12:09:01.441Z,76.53
2023-01-15T12:11:26.769Z,76.75
2023-01-15T12:13:35.898Z,76.58
2023-01-15T12:15:45.091Z,76.29
2023-01-15T12:18:12.390Z,76.46
2023-01-15T12:20:23.982Z,76.60
2023-01-15T12:22:44.840Z,76.55
2023-01-15T12:25:07.061Z,76.59
2023-01-15T12:27:26.726Z,76.61
2023-01-15T12:29:39.479Z,76.51
2023-01-15T12:31:47.256Z,76.46
2023-01-15T12:33:54.897Z,76.75
2023-01-15T12:36:03.473Z,77.02
2023-01-15T12:38:15.833Z,77.09
2023-01-15T12:40:23.925Z,77.04
2023-01-15T12:42:48.720Z,77.03
2023-01-15T12:45:08.810Z,77.13
2023-01-15T12:47:17.764Z,77.60
2023-01-15T12:49:33.409Z,77.41
2023-01-15T12:51:46.434Z,77.68
2023-01-15T12:53:54.323Z,77.38
2023-01-15T12:56:01.666Z,77.28
2023-01-15T12:58:18.398Z,76.13
2023-01-15T13:00:24.276Z,75.74
2023-01-15T13:02:36.840Z,74.64
2023-01-15T13:04:47.027Z,72.14
2023-01-15T13:06:54.946Z,71.68
2023-01-15T13:09:04.058Z,69.83
2023-01-15T13:11:07.606Z,68.21
2023-01-15T13:13:18.230Z,68.79
2023-01-15T13:15:28.109Z,69.81
2023-01-15T13:17:40.589Z,67.77
2023-01-15T13:19:53.662Z,67.06
2023-01-15T13:22:01.124Z,67.52
2023-01-15T13:24:24.182Z,67.23
2023-01-15T13:26:48.064Z,65.52
2023-01-15T13:29:07.172Z,66.01
2023-01-15T13:31:30.154Z,65.98
2023-01-15T13:33:38.908Z,64.95
2023-01-15T13:35:48.123Z,66.00
2023-01-15T13:37:53.757Z,65.16
2023-01-15T13:40:01.315Z,64.17
2023-01-15T13:42:23.204Z,64.21
2023-01-15T13:44:34.553Z,63.35
2023-01-15T13:46:37.479Z,63.31
2023-01-15T13:48:45.597Z,62.78
2023-01-15T13:50:54.113Z,63.09
2023-01-15T13:53:03.698Z,62.73
2023-01-15T13:55:12.916Z,62.25
2023-01-15T13:57:25.114Z,63.08
2023-01-15T13:59:43.225Z,62.83
2023-01-15T14:01:46.178Z,62.05
2023-01-15T14:03:59.149Z,61.53
2023-01-15T14:06:04.337Z,62.56
2023-01-15T14:08:17.468Z,62.61
2023-01-15T14:10:33.470Z,63.07
2023-01-15T14:12:50.203Z,62.03
2023-01-15T14:15:17.423Z,61.76
2023-01-15T14:17:57.696Z,61.74
2023-01-15T14:20:28.005Z,61.53
2023-01-15T14:22:48.782Z,62.05
2023-01-15T14:25:04.235Z,62.18
2023-01-15T14:27:09.509Z,62.97
2023-01-15T14:29:33.602Z,61.65
2023-01-15T14:31:57.943Z,61.62
2023-01-15T14:34:20.579Z,62.02
2023-01-15T14:36:27.809Z,62.35
2023-01-15T14:38:33.305Z,62.20
2023-01-15T14:40:40.625Z,62.37
2023-01-15T14:43:06.851Z,62.17
2023-01-15T14:45:21.907Z,61.83
2023-01-15T14:47:33.226Z,62.85
2023-01-15T14:49:49.551Z,62.05
2023-01-15T14:51:52.549Z,62.33
2023-01-15T14:53:58.638Z,62.76
2023-01-15T14:56:08.494Z,62.89
2023-01-15T14:58:17.340Z,62.13
2023-01-15T15:00:21.958Z,62.24
2023-01-15T15:02:33.491Z,63.13
2023-01-15T15:04:40.379Z,62.41
2023-01-15T15:06:49.141Z,63.12
2023-01-15T15:08:55.047Z,62.86
2023-01-15T15:11:00.219Z,63.12
2023-01-15T15:13:09.220Z,62.96
2023-01-15T15:15:17.884Z,62.92
2023-01-15T15:17:30.697Z,63.77
2023-01-15T15:19:39.738Z,64.35
2023-01-15T15:21:46.227Z,64.35
2023-01-15T15:23:57.006Z,63.42
2023-01-15T15:26:01.394Z,63.51
2023-01-15T15:28:06.516Z,64.06
2023-01-15T15:30:15.369Z,64.47
2023-01-15T15:32:20.824Z,65.11
2023-01-15T15:34:28.635Z,64.88
2023-01-15T15:36:39.050Z,65.28
2023-01-15T15:38:53.652Z,65.78
2023-01-15T15:40:59.925Z,65.82
2023-01-15T15:43:28.791Z,66.20
2023-01-15T15:45:50.763Z,66.35
2023-01-15T15:48:15.258Z,66.89
2023-01-15T15:50:23.109Z,67.15
2023-01-15T15:52:27.981Z,67.09
2023-01-15T15:54:32.658Z,67.82
2023-01-15T15:56:36.119Z,67.99
2023-01-15T15:58:39.973Z,67.64
2023-01-15T16:00:46.099Z,67.54
2023-01-15T16:02:49.222Z,67.57
2023-01-15T16:04:53.278Z,67.93
2023-01-15T16:06:56.055Z,68.09
2023-01-15T16:09:04.468Z,67.35
2023-01-15T16:11:12.349Z,67.04
2023-01-15T16:13:24.890Z,66.87
2023-01-15T16:15:30.754Z,67.76
2023-01-15T16:17:34.553Z,67.72
2023-01-15T16:19:37.728Z,67.46
2023-01-15T16:21:42.495Z,67.53
2023-01-15T16:23:56.206Z,67.81
2023-01-15T16:26:09.020Z,67.65
2023-01-15T16:28:24.927Z,67.12
2023-01-15T16:30:29.188Z,66.88
2023-01-15T16:32:35.667Z,67.09
2023-01-15T16:34:38.606Z,66.99
2023-01-15T16:36:45.365Z,66.81
2023-01-15T16:38:51.584Z,66.92
2023-01-15T16:40:54.884Z,66.19
2023-01-15T16:43:06.770Z,66.32
2023-01-15T16:45:22.587Z,66.33
2023-01-15T16:47:27.239Z,66.67
2023-01-15T16:49:31.890Z,66.18
2023-01-15T16:51:36.298Z,65.76
2023-01-15T16:53:41.422Z,65.80
2023-01-15T16:55:45.829Z,66.11
2023-01-15T16:57:48.630Z,65.69
2023-01-15T16:59:58.698Z,65.82
2023-01-15T17:02:07.867Z,65.25
2023-01-15T17:04:20.696Z,64.98
2023-01-15T17:06:27.118Z,64.60
2023-01-15T17:08:36.478Z,65.07
2023-01-15T17:10:39.382Z,64.48
2023-01-15T17:12:44.306Z,64.62
2023-01-15T17:14:46.985Z,64.98
2023-01-15T17:17:18.572Z,64.47
2023-01-15T17:19:24.366Z,64.18
2023-01-15T17:21:29.296Z,64.33
2023-01-15T17:23:35.567Z,63.70
2023-01-15T17:25:38.416Z,63.75
2023-01-15T17:27:41.238Z,63.60
2023-01-15T17:29:44.246Z,63.47
2023-01-15T17:31:47.102Z,62.97
2023-01-15T17:33:51.735Z,63.26
2023-01-15T17:35:56.592Z,63.83
2023-01-15T17:37:59.445Z,62.82
2023-01-15T17:40:02.318Z,63.42
2023-01-15T17:42:13.959Z,63.61
2023-01-15T17:44:16.705Z,63.45
2023-01-15T17:46:19.636Z,62.93
2023-01-15T17:48:22.434Z,63.92
2023-01-15T17:50:26.738Z,63.27
2023-01-15T17:52:29.510Z,63.74
2023-01-15T17:54:49.810Z,63.40
2023-01-15T17:57:24.857Z,63.15
2023-01-15T17:59:45.124Z,63.61
2023-01-15T18:02:06.419Z,63.07
2023-01-15T18:04:35.848Z,63.25
2023-01-15T18:06:43.984Z,63.10
2023-01-15T18:08:49.927Z,63.90
2023-01-15T18:10:52.784Z,63.39
2023-01-15T18:12:55.646Z,63.13
2023-01-15T18:14:58.501Z,63.79
2023-01-15T18:17:01.830Z,63.17
2023-01-15T18:19:04.706Z,63.75
2023-01-15T18:21:07.595Z,63.96
2023-01-15T18:23:11.906Z,63.71
2023-01-15T18:25:14.704Z,63.98
2023-01-15T18:27:17.499Z,63.65
2023-01-15T18:29:20.754Z,64.57
2023-01-15T18:31:23.599Z,64.63
2023-01-15T18:33:26.389Z,64.28
2023-01-15T18:35:29.173Z,65.17
2023-01-15T18:37:33.126Z,65.00
2023-01-15T18:39:37.852Z,65.23
2023-01-15T18:41:58.795Z,64.96
2023-01-15T18:44:18.973Z,65.15
2023-01-15T18:46:39.426Z,65.49
2023-01-15T18:48:42.330Z,65.35
2023-01-15T18:50:45.137Z,65.47
2023-01-15T18:52:54.054Z,66.00
2023-01-15T18:54:58.368Z,65.90
2023-01-15T18:57:01.188Z,65.43
2023-01-15T18:59:03.999Z,65.89
2023-01-15T19:01:08.988Z,65.97
2023-01-15T19:03:11.938Z,65.82
2023-01-15T19:05:16.971Z,65.35
2023-01-15T19:07:19.840Z,65.51
2023-01-15T19:09:24.148Z,66.13
2023-01-15T19:11:28.722Z,66.19
2023-01-15T19:13:31.546Z,66.21
2023-01-15T19:15:51.906Z,65.48
2023-01-15T19:18:12.274Z,65.68
2023-01-15T19:20:17.316Z,65.78
2023-01-15T19:22:37.713Z,65.61
2023-01-15T19:24:40.536Z,65.74
2023-01-15T19:26:44.668Z,66.38
2023-01-15T19:28:47.464Z,65.94
2023-01-15T19:31:12.405Z,65.43
2023-01-15T19:33:15.164Z,65.61
2023-01-15T19:35:18.356Z,65.75
2023-01-15T19:37:22.066Z,65.81
2023-01-15T19:39:24.894Z,65.73
2023-01-15T19:41:45.394Z,65.58
2023-01-15T19:44:06.967Z,65.72
2023-01-15T19:46:28.379Z,65.80
2023-01-15T19:48:48.609Z,66.34
2023-01-15T19:50:54.071Z,65.89
2023-01-15T19:52:56.942Z,65.91
2023-01-15T19:55:00.248Z,66.46
2023-01-15T19:57:03.129Z,65.52
2023-01-15T19:59:07.806Z,65.16
2023-01-15T20:01:14.671Z,65.59
2023-01-15T20:03:17.806Z,65.64
2023-01-15T20:05:21.695Z,65.00
2023-01-15T20:07:24.477Z,65.42
2023-01-15T20:09:27.233Z,65.62
2023-01-15T20:11:50.889Z,65.18
2023-01-15T20:13:53.678Z,65.61
2023-01-15T20:16:01.218Z,65.18
2023-01-15T20:18:04.141Z,65.21
2023-01-15T20:20:08.278Z,65.56
2023-01-15T20:22:11.149Z,65.52
2023-01-15T20:24:13.999Z,64.99
2023-01-15T20:26:18.156Z,65.63
2023-01-15T20:28:21.495Z,65.43
2023-01-15T20:30:26.340Z,65.44
2023-01-15T20:32:30.433Z,65.63
2023-01-15T20:34:36.282Z,65.57
2023-01-15T20:36:39.163Z,65.19
2023-01-15T20:38:41.921Z,65.74
2023-01-15T20:40:46.285Z,65.98
2023-01-15T20:43:06.996Z,65.72
2023-01-15T20:45:10.929Z,66.11
2023-01-15T20:47:28.103Z,66.47
2023-01-15T20:49:32.590Z,66.50
2023-01-15T20:51:35.373Z,66.08
2023-01-15T20:53:39.326Z,66.07
2023-01-15T20:55:55.910Z,65.99
2023-01-15T20:58:00.457Z,65.91
2023-01-15T21:00:07.842Z,66.30
2023-01-15T21:02:12.497Z,66.58
2023-01-15T21:04:15.426Z,66.02
2023-01-15T21:06:19.611Z,66.21
2023-01-15T21:08:22.454Z,67.26
2023-01-15T21:10:26.569Z,66.52
2023-01-15T21:12:29.353Z,66.36
2023-01-15T21:14:32.160Z,66.68
2023-01-15T21:16:35.085Z,66.88
2023-01-15T21:18:38.932Z,66.76
2023-01-15T21:20:41.712Z,66.71
2023-01-15T21:22:47.343Z,66.25
2023-01-15T21:24:51.610Z,66.19
2023-01-15T21:26:54.439Z,66.34
2023-01-15T21:28:57.606Z,66.09
2023-01-15T21:31:03.815Z,66.06
2023-01-15T21:33:08.815Z,66.34
2023-01-15T21:35:11.779Z,66.26
2023-01-15T21:37:15.873Z,65.93
2023-01-15T21:39:20.741Z,65.69
2023-01-15T21:41:45.766Z,65.77
2023-01-15T21:44:06.032Z,65.70
2023-01-15T21:46:08.902Z,66.18
2023-01-15T21:48:11.637Z,66.31
2023-01-15T21:50:14.371Z,66.24
2023-01-15T21:52:19.302Z,66.67
2023-01-15T21:54:24.529Z,66.70
2023-01-15T21:56:27.367Z,66.91
2023-01-15T21:58:30.235Z,65.94
2023-01-15T22:00:33.128Z,65.99
2023-01-15T22:02:36.208Z,66.31
2023-01-15T22:04:39.126Z,66.43
2023-01-15T22:06:41.904Z,67.03
2023-01-15T22:08:44.763Z,67.53
2023-01-15T22:10:49.804Z,66.61
2023-01-15T22:12:52.608Z,66.59
2023-01-15T22:14:57.366Z,66.27
2023-01-15T22:17:01.768Z,66.66
2023-01-15T22:19:04.604Z,66.62
2023-01-15T22:21:08.512Z,66.58
2023-01-15T22:23:11.390Z,66.92
2023-01-15T22:25:15.544Z,66.24
2023-01-15T22:27:20.661Z,66.60
2023-01-15T22:29:24.840Z,66.39
2023-01-15T22:31:28.387Z,66.60
2023-01-15T22:33:31.749Z,66.22
2023-01-15T22:35:34.640Z,66.57
2023-01-15T22:37:37.436Z,66.39
2023-01-15T22:39:40.247Z,66.39
2023-01-15T22:42:00.708Z,65.66
2023-01-15T22:44:05.466Z,66.24
2023-01-15T22:46:12.566Z,65.92
2023-01-15T22:48:15.577Z,65.96
2023-01-15T22:50:18.629Z,65.99
2023-01-15T22:52:25.038Z,65.66
2023-01-15T22:54:27.825Z,66.11
2023-01-15T22:56:30.569Z,66.55
2023-01-15T22:58:33.287Z,66.66
2023-01-15T23:00:37.589Z,66.58
2023-01-15T23:02:55.542Z,66.68
2023-01-15T23:04:58.321Z,65.81
2023-01-15T23:07:01.285Z,66.22
2023-01-15T23:09:04.912Z,66.91
2023-01-15T23:11:11.312Z,66.07
2023-01-15T23:13:14.493Z,66.36
2023-01-15T23:15:17.331Z,66.67
2023-01-15T23:17:21.490Z,66.67
2023-01-15T23:19:24.928Z,66.75
2023-01-15T23:21:27.980Z,66.79
2023-01-15T23:23:30.862Z,66.37
2023-01-15T23:25:33.662Z,66.94
2023-01-15T23:27:36.542Z,65.99
2023-01-15T23:29:39.289Z,66.02
2023-01-15T23:31:42.183Z,65.84
2023-01-15T23:33:46.889Z,65.49
2023-01-15T23:35:49.711Z,66.11
2023-01-15T23:37:52.518Z,65.61
2023-01-15T23:39:55.363Z,65.31
2023-01-15T23:42:15.641Z,64.89
2023-01-15T23:44:38.531Z,65.61
2023-01-15T23:46:41.361Z,65.53
2023-01-15T23:48:44.667Z,65.42
2023-01-15T23:50:48.829Z,65.50
2023-01-15T23:52:51.730Z,65.59
2023-01-15T23:54:54.553Z,65.47
2023-01-15T23:56:58.286Z,65.39
2023-01-15T23:59:01.341Z,65.31
